Aviation Digital Data Service (ADDS)

Output produced by METARs form (2350 UTC 03 December 2016)
found at http://www.aviationweather.gov/adds/metars/
 
KJFK 032333Z 0400/0506 31014G21KT P6SM SCT050 
     FM040400 31013KT P6SM FEW050 
     FM041100 33012KT P6SM FEW050 
     FM042200 33007KT P6SM FEW050 SCT250 
     FM050000 36004KT P6SM BKN250 
     FM050300 03004KT P6SM BKN120 BKN250